createdAt,value
2018-05-14T00:01:12.974Z,136.33
2018-05-14T00:03:42.403Z,141.90
2018-05-14T00:06:11.529Z,152.77
2018-05-14T00:08:40.739Z,157.03
2018-05-14T00:11:10.007Z,169.00
2018-05-14T00:13:39.273Z,136.33
2018-05-14T00:16:08.504Z,128.17
2018-05-14T00:18:38.501Z,150.47
2018-05-14T00:21:07.717Z,125.80
2018-05-14T00:23:36.921Z,128.60
2018-05-14T00:26:06.163Z,139.47
2018-05-14T00:28:35.354Z,136.93
2018-05-14T00:31:04.601Z,134.50
2018-05-14T00:33:34.781Z,142.43
2018-05-14T00:36:04.010Z,139.30
2018-05-14T00:38:34.186Z,126.13
2018-05-14T00:41:03.399Z,135.83
2018-05-14T00:43:32.650Z,154.43
2018-05-14T00:46:02.706Z,169.83
2018-05-14T00:48:32.090Z,160.47
2018-05-14T00:51:01.197Z,164.47
2018-05-14T00:53:30.416Z,142.30
2018-05-14T00:55:59.650Z,144.90
2018-05-14T00:58:29.649Z,138.07
2018-05-14T01:00:59.710Z,136.67
2018-05-14T01:03:28.931Z,137.20
2018-05-14T01:05:58.159Z,120.40
2018-05-14T01:08:27.425Z,140.97
2018-05-14T01:10:56.642Z,125.13
2018-05-14T01:13:25.881Z,135.37
2018-05-14T01:15:55.145Z,125.10
2018-05-14T01:18:24.437Z,115.90
2018-05-14T01:20:53.901Z,138.17
2018-05-14T01:23:23.095Z,124.77
2018-05-14T01:25:52.298Z,123.43
2018-05-14T01:28:21.535Z,115.53
2018-05-14T01:30:50.739Z,113.70
2018-05-14T01:33:19.932Z,117.47
2018-05-14T01:35:49.158Z,120.63
2018-05-14T01:38:19.201Z,115.33
2018-05-14T01:40:48.514Z,122.33
2018-05-14T01:43:17.701Z,122.17
2018-05-14T01:45:46.938Z,127.93
2018-05-14T01:48:17.055Z,117.03
2018-05-14T01:50:46.477Z,114.77
2018-05-14T01:53:15.717Z,109.17
2018-05-14T01:55:45.026Z,119.70
2018-05-14T01:58:14.234Z,108.23
2018-05-14T02:00:43.466Z,112.53
2018-05-14T02:03:12.665Z,115.10
2018-05-14T02:05:42.684Z,124.20
2018-05-14T02:08:12.678Z,113.70
2018-05-14T02:10:42.117Z,110.93
2018-05-14T02:13:12.409Z,114.37
2018-05-14T02:15:41.633Z,116.17
2018-05-14T02:18:11.627Z,118.87
2018-05-14T02:20:40.854Z,102.43
2018-05-14T02:23:10.828Z,111.33
2018-05-14T02:25:40.067Z,141.83
2018-05-14T02:28:10.050Z,117.00
2018-05-14T02:30:39.273Z,142.03
2018-05-14T02:33:09.244Z,126.83
2018-05-14T02:35:38.466Z,132.00
2018-05-14T02:38:07.705Z,149.53
2018-05-14T02:40:36.975Z,120.83
2018-05-14T02:43:06.174Z,125.67
2018-05-14T02:45:36.202Z,122.63
2018-05-14T02:48:06.325Z,114.57
2018-05-14T02:50:35.565Z,133.87
2018-05-14T02:53:04.791Z,111.40
2018-05-14T02:55:34.028Z,117.27
2018-05-14T02:58:03.280Z,127.07
2018-05-14T03:00:32.527Z,116.07
2018-05-14T03:03:01.784Z,122.60
2018-05-14T03:05:31.051Z,118.07
2018-05-14T03:08:00.301Z,127.93
2018-05-14T03:10:30.438Z,121.53
2018-05-14T03:12:59.802Z,127.07
2018-05-14T03:15:29.026Z,129.43
2018-05-14T03:17:58.247Z,125.27
2018-05-14T03:20:27.472Z,123.27
2018-05-14T03:22:56.707Z,122.20
2018-05-14T03:25:26.696Z,115.43
2018-05-14T03:27:55.990Z,111.57
2018-05-14T03:30:25.233Z,107.57
2018-05-14T03:32:54.454Z,120.47
2018-05-14T03:35:23.675Z,107.47
2018-05-14T03:37:52.961Z,122.33
2018-05-14T03:40:22.216Z,100.87
2018-05-14T03:42:52.198Z,128.23
2018-05-14T03:45:21.502Z,115.43
2018-05-14T03:47:50.713Z,116.87
2018-05-14T03:50:20.718Z,120.63
2018-05-14T03:52:50.033Z,120.43
2018-05-14T03:55:20.190Z,123.17
2018-05-14T03:57:49.397Z,117.13
2018-05-14T04:00:36.346Z,119.80
2018-05-14T04:03:23.144Z,107.93
2018-05-14T04:06:10.014Z,111.80
2018-05-14T04:08:39.217Z,95.30
2018-05-14T04:11:08.485Z,110.47
2018-05-14T04:13:37.677Z,111.00
2018-05-14T04:16:06.916Z,110.43
2018-05-14T04:18:36.135Z,115.90
2018-05-14T04:21:05.379Z,111.47
2018-05-14T04:23:34.597Z,112.20
2018-05-14T04:26:04.688Z,128.30
2018-05-14T04:28:34.658Z,115.13
2018-05-14T04:31:03.929Z,116.07
2018-05-14T04:33:33.906Z,114.27
2018-05-14T04:36:03.137Z,106.90
2018-05-14T04:38:32.469Z,106.53
2018-05-14T04:41:01.688Z,100.87
2018-05-14T04:43:30.903Z,117.70
2018-05-14T04:46:00.203Z,95.10
2018-05-14T04:48:29.364Z,106.60
2018-05-14T04:50:58.573Z,102.60
2018-05-14T04:53:27.812Z,85.87
2018-05-14T04:55:57.784Z,97.17
2018-05-14T04:58:26.995Z,98.20
2018-05-14T05:00:56.282Z,87.53
2018-05-14T05:03:25.538Z,84.00
2018-05-14T05:05:55.526Z,86.43
2018-05-14T05:08:24.774Z,87.33
2018-05-14T05:10:54.196Z,90.23
2018-05-14T05:13:23.461Z,94.17
2018-05-14T05:15:52.742Z,81.63
2018-05-14T05:18:22.799Z,83.27
2018-05-14T05:20:51.971Z,79.67
2018-05-14T05:23:21.194Z,73.93
2018-05-14T05:25:50.455Z,73.83
2018-05-14T05:28:20.562Z,78.23
2018-05-14T05:30:49.758Z,76.70
2018-05-14T05:33:19.745Z,67.20
2018-05-14T05:35:48.961Z,68.43
2018-05-14T05:38:18.973Z,72.00
2018-05-14T05:40:48.584Z,69.23
2018-05-14T05:43:17.806Z,71.03
2018-05-14T05:45:47.863Z,66.27
2018-05-14T05:48:17.060Z,69.03
2018-05-14T05:50:46.302Z,78.67
2018-05-14T05:53:16.305Z,71.33
2018-05-14T05:55:46.333Z,71.57
2018-05-14T05:58:15.542Z,72.17
2018-05-14T06:00:45.553Z,66.10
2018-05-14T06:03:15.519Z,73.77
2018-05-14T06:05:44.804Z,67.53
2018-05-14T06:08:13.994Z,66.43
2018-05-14T06:10:43.218Z,64.33
2018-05-14T06:13:12.603Z,66.00
2018-05-14T06:15:41.995Z,62.27
2018-05-14T06:18:11.191Z,60.13
2018-05-14T06:20:40.421Z,58.43
2018-05-14T06:23:09.639Z,58.67
2018-05-14T06:25:38.872Z,61.43
2018-05-14T06:28:08.077Z,69.40
2018-05-14T06:30:37.316Z,69.47
2018-05-14T06:33:06.554Z,66.30
2018-05-14T06:35:36.706Z,57.73
2018-05-14T06:38:06.636Z,60.30
2018-05-14T06:40:35.810Z,67.20
2018-05-14T06:43:05.982Z,67.27
2018-05-14T06:45:35.187Z,63.33
2018-05-14T06:48:05.256Z,62.67
2018-05-14T06:50:34.827Z,65.97
2018-05-14T06:53:04.821Z,66.80
2018-05-14T06:55:34.020Z,60.27
2018-05-14T06:58:04.059Z,66.87
2018-05-14T07:00:34.113Z,63.50
2018-05-14T07:03:03.340Z,69.53
2018-05-14T07:05:32.595Z,63.97
2018-05-14T07:08:01.813Z,61.17
2018-05-14T07:10:31.027Z,64.00
2018-05-14T07:13:00.289Z,63.50
2018-05-14T07:15:29.590Z,56.87
2018-05-14T07:17:58.868Z,55.83
2018-05-14T07:20:28.176Z,54.67
2018-05-14T07:22:57.410Z,54.40
2018-05-14T07:25:26.695Z,55.37
2018-05-14T07:27:55.977Z,51.77
2018-05-14T07:30:25.221Z,52.87
2018-05-14T07:32:54.426Z,57.23
2018-05-14T07:35:23.669Z,60.23
2018-05-14T07:37:52.897Z,54.50
2018-05-14T07:40:22.191Z,47.10
2018-05-14T07:42:51.378Z,57.43
2018-05-14T07:45:20.674Z,47.57
2018-05-14T07:47:50.103Z,49.67
2018-05-14T07:50:19.115Z,42.80
2018-05-14T07:52:48.329Z,47.13
2018-05-14T07:55:17.566Z,46.70
2018-05-14T07:57:46.773Z,49.20
2018-05-14T08:00:16.025Z,50.83
2018-05-14T08:02:45.209Z,49.87
2018-05-14T08:05:14.455Z,52.73
2018-05-14T08:07:43.674Z,49.23
2018-05-14T08:10:12.857Z,53.67
2018-05-14T08:12:42.085Z,50.27
2018-05-14T08:15:11.290Z,47.20
2018-05-14T08:17:40.538Z,49.33
2018-05-14T08:20:09.740Z,51.37
2018-05-14T08:22:38.972Z,49.97
2018-05-14T08:25:08.186Z,53.17
2018-05-14T08:27:37.534Z,51.93
2018-05-14T08:30:07.409Z,48.83
2018-05-14T08:32:36.675Z,45.27
2018-05-14T08:35:05.895Z,46.30
2018-05-14T08:37:35.111Z,48.00
2018-05-14T08:40:05.107Z,45.87
2018-05-14T08:42:34.373Z,45.77
2018-05-14T08:45:03.657Z,41.30
2018-05-14T08:47:32.875Z,41.63
2018-05-14T08:50:02.173Z,43.80
2018-05-14T08:52:31.351Z,42.97
2018-05-14T08:55:00.621Z,41.50
2018-05-14T08:57:30.657Z,42.63
2018-05-14T08:59:59.970Z,44.73
2018-05-14T09:02:29.193Z,42.77
2018-05-14T09:04:58.725Z,41.80
2018-05-14T09:07:28.745Z,40.43
2018-05-14T09:09:58.890Z,39.97
2018-05-14T09:12:28.112Z,39.47
2018-05-14T09:14:57.418Z,40.57
2018-05-14T09:17:26.628Z,41.00
2018-05-14T09:19:55.878Z,39.80
2018-05-14T09:22:25.885Z,39.80
2018-05-14T09:24:55.885Z,35.60
2018-05-14T09:27:25.135Z,37.50
2018-05-14T09:29:54.364Z,34.33
2018-05-14T09:32:23.561Z,34.90
2018-05-14T09:34:52.839Z,34.47
2018-05-14T09:37:22.105Z,34.43
2018-05-14T09:39:51.265Z,37.33
2018-05-14T09:42:20.545Z,33.63
2018-05-14T09:44:49.815Z,36.83
2018-05-14T09:47:19.038Z,34.20
2018-05-14T09:49:48.400Z,30.70
2018-05-14T09:52:17.652Z,31.20
2018-05-14T09:54:46.879Z,32.97
2018-05-14T09:57:16.859Z,31.17
2018-05-14T09:59:46.965Z,30.73
2018-05-14T10:02:16.286Z,30.60
2018-05-14T10:04:47.001Z,31.43
2018-05-14T10:07:16.245Z,30.37
2018-05-14T10:09:46.256Z,33.20
2018-05-14T10:12:16.297Z,33.30
2018-05-14T10:14:45.505Z,31.93
2018-05-14T10:17:14.772Z,28.87
2018-05-14T10:19:44.766Z,29.03
2018-05-14T10:22:14.801Z,26.53
2018-05-14T10:24:44.899Z,24.80
2018-05-14T10:27:14.090Z,23.17
2018-05-14T10:29:43.469Z,23.97
2018-05-14T10:32:12.701Z,22.77
2018-05-14T10:34:41.937Z,22.80
2018-05-14T10:37:11.901Z,22.10
2018-05-14T10:39:41.307Z,21.63
2018-05-14T10:42:10.731Z,22.00
2018-05-14T10:44:40.758Z,23.57
2018-05-14T10:47:10.002Z,22.90
2018-05-14T10:49:40.038Z,20.83
2018-05-14T10:52:09.260Z,19.40
2018-05-14T10:54:39.270Z,21.13
2018-05-14T10:57:08.640Z,20.07
2018-05-14T10:59:37.873Z,20.60
2018-05-14T11:02:07.076Z,20.53
2018-05-14T11:04:37.098Z,19.67
2018-05-14T11:07:07.104Z,18.73
2018-05-14T11:09:36.451Z,17.53
2018-05-14T11:12:05.782Z,19.93
2018-05-14T11:14:35.161Z,20.33
2018-05-14T11:17:04.400Z,19.40
2018-05-14T11:19:33.612Z,17.23
2018-05-14T11:22:03.709Z,13.13
2018-05-14T11:24:33.005Z,19.33
2018-05-14T11:27:02.237Z,15.57
2018-05-14T11:29:31.496Z,15.97
2018-05-14T11:32:00.737Z,16.13
2018-05-14T11:34:29.973Z,16.77
2018-05-14T11:36:59.226Z,14.07
2018-05-14T11:39:28.453Z,15.93
2018-05-14T11:41:57.707Z,12.97
2018-05-14T11:44:27.734Z,14.60
2018-05-14T11:46:57.745Z,12.53
2018-05-14T11:49:27.167Z,11.80
2018-05-14T11:51:56.401Z,11.87
2018-05-14T11:54:25.627Z,11.40
2018-05-14T11:56:56.415Z,9.83
2018-05-14T11:59:25.665Z,8.27
2018-05-14T12:01:55.022Z,10.00
2018-05-14T12:04:24.227Z,10.40
2018-05-14T12:06:53.421Z,11.73
2018-05-14T12:09:22.625Z,10.50
2018-05-14T12:11:51.859Z,9.70
2018-05-14T12:14:21.080Z,8.23
2018-05-14T12:16:51.045Z,8.07
2018-05-14T12:19:20.263Z,7.50
2018-05-14T12:21:49.474Z,7.30
2018-05-14T12:24:19.418Z,7.30
2018-05-14T12:26:48.658Z,9.30
2018-05-14T12:29:18.125Z,7.07
2018-05-14T12:31:47.331Z,8.43
2018-05-14T12:34:16.523Z,9.03
2018-05-14T12:36:46.004Z,6.90
2018-05-14T12:39:15.258Z,6.40
2018-05-14T12:41:44.490Z,6.97
2018-05-14T12:44:13.704Z,6.37
2018-05-14T12:46:42.973Z,5.90
2018-05-14T12:49:12.245Z,7.80
2018-05-14T12:51:41.455Z,9.40
2018-05-14T12:54:10.699Z,6.43
2018-05-14T12:56:39.918Z,10.70
2018-05-14T12:59:09.158Z,6.00
2018-05-14T13:01:38.418Z,7.13
2018-05-14T13:04:07.647Z,5.97
2018-05-14T13:06:36.885Z,5.77
2018-05-14T13:09:06.844Z,6.23
2018-05-14T13:11:36.082Z,5.80
2018-05-14T13:14:06.001Z,5.77
2018-05-14T13:16:36.817Z,7.47
2018-05-14T13:19:06.064Z,6.13
2018-05-14T13:21:35.244Z,6.60
2018-05-14T13:24:04.894Z,8.13
2018-05-14T13:26:34.136Z,5.10
2018-05-14T13:29:04.107Z,5.57
2018-05-14T13:31:33.321Z,6.37
2018-05-14T13:34:02.521Z,5.87
2018-05-14T13:36:32.254Z,5.23
2018-05-14T13:39:01.519Z,9.60
2018-05-14T13:41:30.833Z,5.63
2018-05-14T13:44:00.108Z,5.97
2018-05-14T13:46:29.385Z,7.50
2018-05-14T13:48:59.397Z,7.97
2018-05-14T13:51:28.731Z,6.67
2018-05-14T13:53:57.931Z,6.17
2018-05-14T13:56:28.048Z,6.10
2018-05-14T13:58:57.181Z,6.13
2018-05-14T14:01:26.492Z,6.20
2018-05-14T14:03:55.742Z,6.70
2018-05-14T14:06:24.998Z,5.37
2018-05-14T14:08:54.313Z,5.63
2018-05-14T14:11:23.596Z,5.40
2018-05-14T14:13:52.750Z,5.53
2018-05-14T14:16:21.965Z,6.13
2018-05-14T14:18:51.196Z,6.77
2018-05-14T14:21:20.435Z,7.37
2018-05-14T14:23:49.855Z,7.80
2018-05-14T14:26:19.087Z,5.93
2018-05-14T14:28:48.326Z,6.30
2018-05-14T14:31:17.638Z,6.73
2018-05-14T14:33:46.876Z,5.57
2018-05-14T14:36:16.897Z,6.57
2018-05-14T14:38:46.157Z,6.63
2018-05-14T14:41:15.435Z,6.93
2018-05-14T14:43:44.661Z,5.40
2018-05-14T14:46:14.794Z,5.57
2018-05-14T14:48:44.813Z,9.87
2018-05-14T14:51:14.953Z,5.50
2018-05-14T14:53:44.172Z,5.87
2018-05-14T14:56:14.952Z,5.97
2018-05-14T14:58:44.170Z,5.90
2018-05-14T15:01:13.541Z,4.40
2018-05-14T15:03:42.866Z,6.00
2018-05-14T15:06:12.102Z,5.47
2018-05-14T15:08:41.395Z,10.63
2018-05-14T15:11:10.787Z,5.30
2018-05-14T15:13:40.047Z,5.07
2018-05-14T15:16:09.323Z,7.87
2018-05-14T15:18:38.549Z,5.20
2018-05-14T15:21:08.546Z,5.57
2018-05-14T15:23:37.777Z,5.53
2018-05-14T15:26:07.763Z,4.87
2018-05-14T15:28:37.035Z,5.10
2018-05-14T15:31:06.210Z,7.73
2018-05-14T15:33:35.466Z,6.67
2018-05-14T15:36:05.441Z,6.30
2018-05-14T15:38:34.749Z,5.77
2018-05-14T15:41:04.057Z,4.23
2018-05-14T15:43:33.272Z,11.17
2018-05-14T15:46:02.498Z,5.00
2018-05-14T15:48:32.493Z,5.80
2018-05-14T15:51:01.715Z,6.10
2018-05-14T15:53:31.353Z,8.00
2018-05-14T15:56:00.594Z,4.70
2018-05-14T15:58:30.593Z,6.37
2018-05-14T16:00:59.878Z,4.33
2018-05-14T16:03:29.134Z,5.90
2018-05-14T16:05:58.364Z,5.77
2018-05-14T16:08:27.635Z,7.97
2018-05-14T16:10:57.649Z,8.60
2018-05-14T16:13:26.885Z,5.30
2018-05-14T16:15:56.258Z,5.33
2018-05-14T16:18:25.468Z,5.17
2018-05-14T16:20:54.701Z,8.63
2018-05-14T16:23:23.946Z,5.57
2018-05-14T16:25:53.164Z,5.10
2018-05-14T16:28:22.474Z,5.37
2018-05-14T16:30:55.654Z,5.23
2018-05-14T16:33:26.144Z,7.80
2018-05-14T16:35:56.120Z,4.10
2018-05-14T16:38:25.316Z,5.83
2018-05-14T16:40:55.358Z,4.60
2018-05-14T16:43:24.573Z,6.60
2018-05-14T16:45:55.235Z,4.90
2018-05-14T16:48:24.465Z,5.70
2018-05-14T16:50:53.719Z,5.17
2018-05-14T16:53:23.174Z,5.93
2018-05-14T16:55:52.385Z,8.13
2018-05-14T16:58:22.508Z,8.37
2018-05-14T17:00:51.716Z,5.50
2018-05-14T17:03:21.810Z,5.13
2018-05-14T17:05:51.199Z,6.03
2018-05-14T17:08:20.394Z,9.93
2018-05-14T17:10:50.405Z,6.30
2018-05-14T17:13:19.792Z,10.87
2018-05-14T17:15:49.090Z,5.20
2018-05-14T17:18:18.317Z,5.87
2018-05-14T17:20:47.562Z,6.90
2018-05-14T17:23:16.782Z,9.10
2018-05-14T17:25:46.104Z,5.90
2018-05-14T17:28:15.345Z,5.67
2018-05-14T17:30:44.704Z,6.97
2018-05-14T17:33:13.948Z,10.53
2018-05-14T17:35:45.124Z,6.07
2018-05-14T17:38:14.346Z,9.07
2018-05-14T17:40:43.615Z,6.43
2018-05-14T17:43:13.029Z,7.13
2018-05-14T17:45:42.363Z,5.60
2018-05-14T17:48:11.685Z,6.47
2018-05-14T17:50:41.774Z,6.13
2018-05-14T17:53:11.252Z,9.80
2018-05-14T17:55:40.494Z,5.83
2018-05-14T17:58:09.980Z,6.77
2018-05-14T18:00:39.206Z,7.67
2018-05-14T18:03:09.207Z,8.30
2018-05-14T18:05:38.510Z,6.10
2018-05-14T18:08:08.530Z,9.10
2018-05-14T18:10:38.578Z,5.50
2018-05-14T18:13:07.842Z,9.03
2018-05-14T18:15:37.202Z,6.60
2018-05-14T18:18:06.355Z,6.90
2018-05-14T18:20:38.204Z,6.17
2018-05-14T18:23:07.643Z,7.20
2018-05-14T18:25:42.385Z,6.20
2018-05-14T18:28:14.572Z,6.10
2018-05-14T18:30:46.221Z,6.57
2018-05-14T18:33:25.354Z,10.33
2018-05-14T18:35:56.318Z,11.00
2018-05-14T18:38:26.347Z,7.27
2018-05-14T18:40:56.322Z,7.00
2018-05-14T18:43:25.814Z,6.83
2018-05-14T18:45:55.082Z,9.90
2018-05-14T18:48:25.245Z,7.57
2018-05-14T18:50:54.487Z,12.40
2018-05-14T18:53:24.501Z,6.80
2018-05-14T18:55:53.790Z,7.10
2018-05-14T18:58:23.814Z,6.17
2018-05-14T19:00:53.783Z,5.83
2018-05-14T19:03:23.025Z,7.03
2018-05-14T19:05:53.055Z,7.03
2018-05-14T19:08:22.883Z,6.50
2018-05-14T19:10:57.665Z,6.60
2018-05-14T19:13:27.713Z,10.00
2018-05-14T19:16:02.783Z,6.37
2018-05-14T19:18:32.020Z,5.80
2018-05-14T19:21:01.375Z,6.50
2018-05-14T19:37:04.677Z,6.57
2018-05-14T19:53:02.248Z,9.60
2018-05-14T19:55:31.499Z,8.93
2018-05-14T19:58:00.721Z,7.03
2018-05-14T20:00:29.963Z,6.57
2018-05-14T20:03:00.718Z,6.90
2018-05-14T20:05:29.941Z,5.97
2018-05-14T20:07:59.304Z,6.27
2018-05-14T20:10:28.583Z,7.90
2018-05-14T20:12:58.714Z,8.17
2018-05-14T20:15:28.032Z,6.13
2018-05-14T20:17:57.295Z,7.00
2018-05-14T20:20:27.379Z,8.30
2018-05-14T20:22:56.783Z,7.30
2018-05-14T20:25:26.327Z,7.93
2018-05-14T20:27:56.325Z,8.60
2018-05-14T20:30:26.316Z,8.63
2018-05-14T20:32:55.544Z,7.30
2018-05-14T20:35:24.786Z,6.63
2018-05-14T20:37:54.067Z,6.03
2018-05-14T20:40:23.355Z,6.53
2018-05-14T20:42:53.379Z,6.93
2018-05-14T20:45:22.758Z,9.90
2018-05-14T20:47:52.799Z,6.33
2018-05-14T20:50:22.044Z,9.90
2018-05-14T20:52:51.302Z,6.30
2018-05-14T20:55:21.296Z,7.90
2018-05-14T20:57:50.617Z,6.47
2018-05-14T21:00:19.930Z,8.23
2018-05-14T21:02:49.166Z,6.23
2018-05-14T21:05:19.266Z,5.70
2018-05-14T21:07:53.944Z,6.23
2018-05-14T21:10:23.564Z,6.80
2018-05-14T21:12:52.779Z,8.50
2018-05-14T21:15:22.061Z,8.40
2018-05-14T21:17:52.117Z,8.97
2018-05-14T21:20:21.583Z,9.50
2018-05-14T21:22:50.836Z,7.67
2018-05-14T21:25:21.690Z,7.03
2018-05-14T21:27:51.781Z,6.73
2018-05-14T21:30:21.026Z,6.47
2018-05-14T21:32:50.268Z,6.57
2018-05-14T21:35:19.535Z,8.43
2018-05-14T21:37:48.831Z,13.03
2018-05-14T21:40:18.085Z,8.90
2018-05-14T21:42:47.298Z,6.90
2018-05-14T21:45:17.537Z,7.20
2018-05-14T21:47:46.992Z,7.43
2018-05-14T21:50:16.216Z,9.77
2018-05-14T21:52:45.488Z,8.40
2018-05-14T21:55:14.728Z,7.13
2018-05-14T21:57:44.818Z,8.87
2018-05-14T22:00:15.589Z,7.73
2018-05-14T22:02:44.846Z,8.23
2018-05-14T22:05:14.060Z,7.17
2018-05-14T22:07:44.164Z,7.00
2018-05-14T22:10:13.509Z,8.30
2018-05-14T22:12:43.683Z,10.13
2018-05-14T22:15:12.912Z,9.20
2018-05-14T22:17:42.997Z,9.63
2018-05-14T22:20:12.255Z,9.33
2018-05-14T22:22:42.006Z,6.43
2018-05-14T22:25:11.221Z,6.00
2018-05-14T22:27:40.417Z,8.23
2018-05-14T22:30:10.470Z,10.17
2018-05-14T22:32:40.465Z,8.97
2018-05-14T22:35:10.481Z,10.17
2018-05-14T22:37:40.487Z,7.67
2018-05-14T22:40:10.570Z,8.30
2018-05-14T22:42:39.783Z,7.23
2018-05-14T22:45:09.337Z,9.00
2018-05-14T22:47:38.614Z,8.13
2018-05-14T22:50:08.610Z,7.33
2018-05-14T22:52:38.589Z,8.80
2018-05-14T22:55:07.808Z,11.47
2018-05-14T22:57:37.050Z,12.13
2018-05-14T23:00:06.403Z,7.80
2018-05-14T23:02:35.725Z,6.80
2018-05-14T23:05:04.949Z,8.50
2018-05-14T23:07:34.834Z,8.33
2018-05-14T23:10:05.565Z,8.03
2018-05-14T23:12:35.610Z,7.33
2018-05-14T23:24:54.874Z,7.43
2018-05-14T23:27:24.169Z,9.70
2018-05-14T23:29:53.403Z,13.47
2018-05-14T23:32:22.625Z,7.77
2018-05-14T23:34:52.613Z,8.00
2018-05-14T23:37:21.809Z,10.47
2018-05-14T23:39:51.034Z,8.37
2018-05-14T23:42:21.435Z,10.10
2018-05-14T23:44:50.663Z,8.80
2018-05-14T23:47:20.659Z,8.47
2018-05-14T23:49:49.912Z,7.43
2018-05-14T23:52:19.178Z,9.30
2018-05-14T23:54:49.158Z,7.40
2018-05-14T23:57:18.386Z,10.93
2018-05-14T23:59:47.645Z,7.13
